createdAt,value
2022-10-05T00:01:33.931Z,4.00
2022-10-05T00:04:14.618Z,4.65
2022-10-05T00:06:47.691Z,4.40
2022-10-05T00:09:20.106Z,4.43
2022-10-05T00:11:47.866Z,4.45
2022-10-05T00:14:19.223Z,4.30
2022-10-05T00:16:46.591Z,4.50
2022-10-05T00:19:33.239Z,4.60
2022-10-05T00:24:59.425Z,5.13
2022-10-05T00:30:21.215Z,4.97
2022-10-05T00:35:35.920Z,4.90
2022-10-05T00:40:55.379Z,5.07
2022-10-05T00:43:45.959Z,4.80
2022-10-05T00:46:44.965Z,4.50
2022-10-05T00:49:49.107Z,4.80
2022-10-05T00:52:21.910Z,4.80
2022-10-05T00:55:10.394Z,5.20
2022-10-05T00:57:56.367Z,4.80
2022-10-05T01:00:26.087Z,5.00
2022-10-05T01:03:08.920Z,4.67
2022-10-05T01:05:45.023Z,4.50
2022-10-05T01:08:40.448Z,5.00
2022-10-05T01:11:18.820Z,4.75
2022-10-05T01:13:58.700Z,4.80
2022-10-05T01:16:35.847Z,4.60
2022-10-05T01:22:01.474Z,4.77
2022-10-05T01:24:49.665Z,4.90
2022-10-05T01:27:39.137Z,5.20
2022-10-05T01:30:12.245Z,4.35
2022-10-05T01:35:47.361Z,4.30
2022-10-05T01:38:29.478Z,4.70
2022-10-05T01:41:19.282Z,4.40
2022-10-05T01:43:54.762Z,4.50
2022-10-05T01:46:33.675Z,4.80
2022-10-05T01:49:09.234Z,4.70
2022-10-05T01:52:11.286Z,4.80
2022-10-05T01:55:02.794Z,4.60
2022-10-05T01:57:44.280Z,4.40
2022-10-05T02:00:16.991Z,4.40
2022-10-05T02:02:51.795Z,4.60
2022-10-05T02:05:08.694Z,0
2022-10-05T02:05:21.481Z,4.70
2022-10-05T02:08:01.760Z,4.70
2022-10-05T02:10:36.395Z,4.50
2022-10-05T02:13:24.375Z,4.30
2022-10-05T02:16:03.252Z,4.40
2022-10-05T02:18:40.559Z,4.18
2022-10-05T02:21:08.596Z,4.80
2022-10-05T02:23:39.597Z,4.30
2022-10-05T02:26:08.988Z,3.97
2022-10-05T02:29:14.920Z,4.10
2022-10-05T02:31:48.933Z,4.00
2022-10-05T02:34:28.112Z,4.28
2022-10-05T02:37:12.503Z,4.00
2022-10-05T02:39:47.451Z,4.20
2022-10-05T02:42:33.396Z,4.00
2022-10-05T02:45:37.242Z,3.88
2022-10-05T02:48:12.001Z,3.80
2022-10-05T02:50:41.536Z,3.73
2022-10-05T02:53:17.070Z,3.88
2022-10-05T02:55:58.469Z,3.95
2022-10-05T02:58:28.473Z,3.70
2022-10-05T03:01:13.915Z,3.60
2022-10-05T03:03:51.376Z,3.80
2022-10-05T03:06:26.986Z,4.10
2022-10-05T03:09:08.196Z,3.70
2022-10-05T03:11:46.948Z,3.70
2022-10-05T03:14:25.840Z,3.67
2022-10-05T03:17:06.822Z,3.75
2022-10-05T03:19:54.713Z,4.15
2022-10-05T03:22:52.271Z,4.10
2022-10-05T03:25:49.366Z,4.00
2022-10-05T03:31:17.220Z,3.70
2022-10-05T03:33:55.182Z,4.18
2022-10-05T03:36:44.497Z,4.10
2022-10-05T03:39:20.376Z,4.10
2022-10-05T03:41:49.831Z,4.50
2022-10-05T03:44:34.835Z,4.40
2022-10-05T03:50:43.529Z,4.30
2022-10-05T03:53:27.348Z,4.20
2022-10-05T03:56:16.404Z,3.78
2022-10-05T03:58:50.110Z,4.20
2022-10-05T04:01:22.101Z,4.20
2022-10-05T04:03:54.015Z,3.83
2022-10-05T04:06:48.492Z,4.20
2022-10-05T04:09:36.338Z,4.00
2022-10-05T04:12:08.817Z,4.00
2022-10-05T04:17:34.026Z,3.90
2022-10-05T04:26:09.517Z,3.85
2022-10-05T04:28:35.643Z,0
2022-10-05T04:28:54.298Z,4.10
2022-10-05T04:31:41.958Z,4.05
2022-10-05T04:34:37.458Z,4.22
2022-10-05T04:37:09.315Z,4.45
2022-10-05T04:39:56.710Z,4.27
2022-10-05T04:43:04.544Z,4.60
2022-10-05T04:46:13.060Z,4.30
2022-10-05T04:51:37.995Z,4.30
2022-10-05T04:54:43.827Z,4.40
2022-10-05T04:57:31.627Z,4.73
2022-10-05T05:06:49.545Z,5.00
2022-10-05T05:09:22.331Z,4.50
2022-10-05T05:12:07.556Z,4.63
2022-10-05T05:14:49.079Z,4.50
2022-10-05T05:17:31.249Z,4.63
2022-10-05T05:20:16.438Z,4.65
2022-10-05T05:22:55.343Z,4.60
2022-10-05T05:25:40.077Z,5.07
2022-10-05T05:28:27.390Z,4.75
2022-10-05T05:31:04.453Z,5.30
2022-10-05T05:33:43.347Z,4.85
2022-10-05T05:42:38.125Z,5.00
2022-10-05T05:45:31.398Z,5.00
2022-10-05T05:48:00.874Z,4.70
2022-10-05T05:50:42.628Z,5.50
2022-10-05T05:56:32.543Z,5.25
2022-10-05T05:59:12.146Z,4.80
2022-10-05T06:02:04.413Z,4.90
2022-10-05T06:04:54.691Z,5.10
2022-10-05T06:07:30.201Z,4.90
2022-10-05T06:10:20.134Z,5.10
2022-10-05T06:12:50.301Z,5.15
2022-10-05T06:15:32.544Z,4.95
2022-10-05T06:18:26.068Z,5.10
2022-10-05T06:21:18.920Z,4.70
2022-10-05T06:23:52.894Z,4.65
2022-10-05T06:26:31.698Z,4.57
2022-10-05T06:29:03.991Z,5.18
2022-10-05T06:31:58.705Z,4.60
2022-10-05T06:34:55.861Z,5.20
2022-10-05T06:40:59.983Z,5.25
2022-10-05T06:43:38.027Z,5.00
2022-10-05T06:46:18.363Z,4.70
2022-10-05T06:55:41.658Z,4.85
2022-10-05T06:58:26.209Z,4.85
2022-10-05T07:04:06.975Z,5.10
2022-10-05T07:06:42.782Z,5.10
2022-10-05T07:09:21.831Z,5.10
2022-10-05T07:12:29.697Z,5.03
2022-10-05T07:15:25.496Z,5.20
2022-10-05T07:17:58.009Z,5.22
2022-10-05T07:20:46.816Z,5.60
2022-10-05T07:23:27.721Z,4.70
2022-10-05T07:26:03.712Z,4.90
2022-10-05T07:29:02.254Z,4.80
2022-10-05T07:31:34.163Z,5.30
2022-10-05T07:34:09.825Z,5.00
2022-10-05T07:36:44.905Z,5.55
2022-10-05T07:39:23.554Z,5.07
2022-10-05T07:41:57.628Z,5.13
2022-10-05T07:50:37.420Z,6.00
2022-10-05T07:53:17.646Z,5.90
2022-10-05T07:55:55.745Z,5.82
2022-10-05T07:58:34.450Z,5.60
2022-10-05T08:01:22.743Z,5.60
2022-10-05T08:03:52.084Z,5.45
2022-10-05T08:06:47.027Z,4.90
2022-10-05T08:09:32.670Z,4.95
2022-10-05T08:12:25.793Z,5.57
2022-10-05T08:15:19.851Z,4.78
2022-10-05T08:18:00.191Z,4.85
2022-10-05T08:20:47.339Z,4.57
2022-10-05T08:23:25.119Z,4.50
2022-10-05T08:25:57.428Z,4.45
2022-10-05T08:28:31.141Z,4.43
2022-10-05T08:31:15.759Z,4.30
2022-10-05T08:37:04.921Z,3.90
2022-10-05T08:39:39.779Z,4.00
2022-10-05T08:45:06.134Z,4.33
2022-10-05T08:48:15.114Z,3.80
2022-10-05T08:50:56.656Z,4.10
2022-10-05T08:53:50.741Z,3.70
2022-10-05T08:56:34.461Z,4.00
2022-10-05T09:02:50.372Z,4.00
2022-10-05T09:05:58.063Z,4.15
2022-10-05T09:11:47.756Z,4.30
2022-10-05T09:14:52.602Z,3.78
2022-10-05T09:17:32.358Z,4.10
2022-10-05T09:20:40.055Z,4.20
2022-10-05T09:23:13.282Z,4.20
2022-10-05T09:25:47.057Z,4.47
2022-10-05T09:28:23.088Z,4.60
2022-10-05T09:34:28.764Z,4.20
2022-10-05T09:37:22.783Z,4.22
2022-10-05T09:40:01.779Z,3.90
2022-10-05T09:42:49.371Z,4.63
2022-10-05T09:45:28.056Z,4.30
2022-10-05T09:48:13.151Z,3.90
2022-10-05T09:51:14.445Z,4.18
2022-10-05T09:54:02.444Z,4.90
2022-10-05T09:57:02.830Z,3.90
2022-10-05T10:01:36.922Z,0
2022-10-05T10:02:52.454Z,3.92
2022-10-05T10:05:34.544Z,3.70
2022-10-05T10:08:21.503Z,3.60
2022-10-05T10:10:54.384Z,3.67
2022-10-05T10:13:45.932Z,3.70
2022-10-05T10:16:12.679Z,3.20
2022-10-05T10:18:51.403Z,3.72
2022-10-05T10:21:24.072Z,3.60
2022-10-05T10:23:59.578Z,3.58
2022-10-05T10:26:47.601Z,3.40
2022-10-05T10:29:37.793Z,3.65
2022-10-05T10:35:08.319Z,3.10
2022-10-05T10:37:58.556Z,3.20
2022-10-05T10:40:50.746Z,3.60
2022-10-05T10:43:42.745Z,2.90
2022-10-05T10:46:31.091Z,3.08
2022-10-05T10:49:45.721Z,3.30
2022-10-05T10:52:23.621Z,3.13
2022-10-05T10:55:19.664Z,2.92
2022-10-05T10:58:16.233Z,3.00
2022-10-05T11:01:03.542Z,3.30
2022-10-05T11:06:52.826Z,3.10
2022-10-05T11:09:50.449Z,3.20
2022-10-05T11:12:38.393Z,2.60
2022-10-05T11:16:00.535Z,2.80
2022-10-05T11:18:51.646Z,2.90
2022-10-05T11:20:06.892Z,0
2022-10-05T11:21:27.039Z,2.90
2022-10-05T11:24:17.820Z,2.80
2022-10-05T11:26:47.727Z,2.88
2022-10-05T11:32:28.404Z,3.63
2022-10-05T11:35:18.933Z,3.00
2022-10-05T11:37:48.480Z,2.90
2022-10-05T11:40:36.733Z,2.80
2022-10-05T11:43:35.665Z,2.90
2022-10-05T11:46:41.745Z,2.75
2022-10-05T11:49:26.384Z,2.70
2022-10-05T11:52:15.398Z,2.90
2022-10-05T11:55:12.763Z,3.30
2022-10-05T11:57:58.404Z,3.00
2022-10-05T12:00:48.448Z,3.00
2022-10-05T12:03:22.911Z,2.70
2022-10-05T12:05:55.871Z,3.20
2022-10-05T12:09:05.169Z,2.90
2022-10-05T12:11:43.299Z,2.80
2022-10-05T12:14:36.249Z,2.70
2022-10-05T12:17:18.002Z,3.00
2022-10-05T12:19:51.402Z,2.60
2022-10-05T12:22:36.760Z,2.67
2022-10-05T12:25:26.655Z,3.13
2022-10-05T12:27:58.431Z,2.90
2022-10-05T12:31:00.767Z,2.90
2022-10-05T12:33:40.927Z,3.10
2022-10-05T12:36:19.554Z,2.83
2022-10-05T12:38:53.059Z,2.90
2022-10-05T12:41:35.450Z,2.90
2022-10-05T12:48:05.201Z,2.60
2022-10-05T12:50:40.058Z,2.60
2022-10-05T12:53:06.771Z,2.78
2022-10-05T12:56:00.847Z,3.03
2022-10-05T12:59:05.933Z,2.73
2022-10-05T13:01:47.069Z,2.70
2022-10-05T13:04:30.763Z,2.88
2022-10-05T13:07:21.805Z,2.70
2022-10-05T13:16:15.188Z,2.80
2022-10-05T13:18:49.347Z,2.50
2022-10-05T13:21:55.213Z,2.70
2022-10-05T13:24:35.016Z,2.72
2022-10-05T13:27:22.346Z,2.55
2022-10-05T13:30:02.770Z,3.30
2022-10-05T13:32:40.692Z,2.45
2022-10-05T13:35:27.827Z,2.30
2022-10-05T13:38:07.961Z,2.50
2022-10-05T13:41:10.335Z,2.70
2022-10-05T13:44:12.651Z,2.80
2022-10-05T13:46:44.516Z,3.05
2022-10-05T13:52:28.619Z,2.70
2022-10-05T13:55:17.515Z,2.70
2022-10-05T13:58:05.437Z,2.80
2022-10-05T14:00:37.518Z,2.70
2022-10-05T14:03:23.486Z,2.60
2022-10-05T14:05:59.079Z,2.70
2022-10-05T14:08:29.073Z,2.47
2022-10-05T14:10:56.315Z,2.50
2022-10-05T14:13:45.726Z,2.58
2022-10-05T14:16:12.464Z,2.60
2022-10-05T14:19:10.002Z,2.60
2022-10-05T14:22:03.389Z,2.50
2022-10-05T14:24:44.757Z,2.20
2022-10-05T14:27:20.933Z,2.45
2022-10-05T14:30:13.091Z,2.20
2022-10-05T14:32:58.511Z,2.22
2022-10-05T14:35:50.653Z,2.40
2022-10-05T14:41:36.721Z,2.13
2022-10-05T14:44:09.447Z,2.30
2022-10-05T14:46:37.357Z,2.00
2022-10-05T14:58:58.051Z,2.10
2022-10-05T15:01:30.190Z,2.00
2022-10-05T15:04:25.955Z,1.90
2022-10-05T15:07:34.057Z,2.40
2022-10-05T15:10:19.529Z,1.90
2022-10-05T15:12:48.119Z,2.10
2022-10-05T15:15:24.762Z,2.20
2022-10-05T15:17:57.659Z,2.20
2022-10-05T15:20:40.830Z,2.20
2022-10-05T15:23:19.888Z,2.42
2022-10-05T15:26:21.620Z,2.63
2022-10-05T15:29:18.450Z,2.33
2022-10-05T15:31:51.276Z,2.30
2022-10-05T15:34:23.509Z,2.10
2022-10-05T15:37:08.243Z,2.50
2022-10-05T15:40:04.982Z,2.50
2022-10-05T15:42:40.031Z,2.30
2022-10-05T15:48:14.804Z,2.30
2022-10-05T15:50:49.333Z,2.40
2022-10-05T15:53:25.346Z,2.40
2022-10-05T15:56:13.257Z,2.17
2022-10-05T15:59:04.047Z,2.50
2022-10-05T16:01:33.928Z,2.42
2022-10-05T16:07:17.311Z,2.40
2022-10-05T16:09:55.700Z,2.60
2022-10-05T16:12:34.214Z,2.80
2022-10-05T16:15:30.506Z,2.60
2022-10-05T16:18:21.646Z,2.70
2022-10-05T16:24:22.629Z,2.90
2022-10-05T16:27:08.940Z,3.05
2022-10-05T16:30:05.991Z,2.83
2022-10-05T16:33:09.397Z,2.70
2022-10-05T16:35:39.187Z,2.77
2022-10-05T16:38:32.525Z,3.13
2022-10-05T16:44:16.615Z,2.90
2022-10-05T16:46:55.983Z,2.88
2022-10-05T16:50:02.736Z,3.70
2022-10-05T16:52:30.693Z,3.08
2022-10-05T16:55:12.212Z,3.10
2022-10-05T16:57:47.635Z,2.80
2022-10-05T17:00:39.389Z,3.00
2022-10-05T17:03:18.145Z,2.80
2022-10-05T17:06:10.811Z,3.10
2022-10-05T17:09:14.807Z,3.20
2022-10-05T17:14:58.913Z,3.38
2022-10-05T17:17:46.544Z,2.60
2022-10-05T17:20:32.096Z,2.80
2022-10-05T17:23:17.775Z,2.80
2022-10-05T17:26:21.550Z,3.00
2022-10-05T17:29:15.311Z,2.83
2022-10-05T17:32:10.930Z,2.80
2022-10-05T17:34:39.950Z,2.90
2022-10-05T17:37:18.840Z,3.00
2022-10-05T17:39:52.381Z,2.83
2022-10-05T17:45:20.921Z,2.90
2022-10-05T17:48:08.691Z,3.33
2022-10-05T17:50:48.280Z,3.42
2022-10-05T17:53:36.271Z,3.30
2022-10-05T17:56:04.755Z,3.10
2022-10-05T17:58:31.470Z,3.03
2022-10-05T18:00:58.130Z,3.07
2022-10-05T18:10:12.856Z,3.00
2022-10-05T18:12:45.099Z,3.50
2022-10-05T18:15:36.518Z,3.72
2022-10-05T18:21:29.026Z,3.40
2022-10-05T18:26:45.128Z,3.20
2022-10-05T18:29:23.705Z,4.00
2022-10-05T18:32:00.511Z,3.40
2022-10-05T18:35:01.855Z,3.40
2022-10-05T18:38:10.435Z,3.10
2022-10-05T18:41:05.233Z,3.30
2022-10-05T18:44:07.520Z,3.40
2022-10-05T18:46:34.266Z,3.20
2022-10-05T18:49:07.142Z,3.00
2022-10-05T18:51:40.492Z,3.20
2022-10-05T18:57:45.483Z,4.57
2022-10-05T19:00:21.369Z,3.80
2022-10-05T19:03:03.381Z,3.22
2022-10-05T19:05:48.981Z,3.40
2022-10-05T19:08:21.715Z,3.10
2022-10-05T19:14:14.243Z,2.92
2022-10-05T19:17:07.910Z,3.00
2022-10-05T19:20:14.032Z,3.50
2022-10-05T19:22:49.865Z,3.03
2022-10-05T19:25:35.339Z,2.80
2022-10-05T19:28:23.331Z,2.63
2022-10-05T19:30:57.493Z,3.05
2022-10-05T19:33:45.581Z,2.80
2022-10-05T19:36:30.515Z,3.40
2022-10-05T19:39:09.013Z,2.90
2022-10-05T19:45:10.614Z,3.38
2022-10-05T19:48:16.137Z,2.80
2022-10-05T19:50:57.478Z,3.00
2022-10-05T19:56:20.796Z,3.10
2022-10-05T19:58:49.607Z,2.97
2022-10-05T20:01:25.414Z,2.80
2022-10-05T20:06:39.985Z,2.90
2022-10-05T20:09:21.221Z,2.70
2022-10-05T20:11:52.758Z,3.30
2022-10-05T20:14:33.631Z,3.00
2022-10-05T20:17:27.157Z,3.20
2022-10-05T20:19:53.982Z,3.00
2022-10-05T20:22:32.367Z,3.30
2022-10-05T20:27:43.696Z,3.60
2022-10-05T20:30:13.027Z,3.35
2022-10-05T20:35:28.271Z,3.00
2022-10-05T20:40:41.958Z,3.20
2022-10-05T20:45:55.373Z,3.20
2022-10-05T20:51:08.758Z,3.20
2022-10-05T20:53:35.492Z,3.20
2022-10-05T20:56:02.224Z,2.90
2022-10-05T20:58:29.279Z,3.20
2022-10-05T21:00:56.472Z,3.03
2022-10-05T21:03:23.338Z,3.08
2022-10-05T21:05:50.083Z,2.97
2022-10-05T21:08:16.843Z,3.10
2022-10-05T21:10:43.560Z,3.25
2022-10-05T21:13:10.259Z,3.60
2022-10-05T21:15:36.972Z,3.13
2022-10-05T21:18:03.769Z,3.17
2022-10-05T21:20:30.526Z,3.05
2022-10-05T21:22:57.685Z,3.33
2022-10-05T21:28:11.107Z,3.00
2022-10-05T21:33:24.853Z,3.10
2022-10-05T21:35:51.967Z,3.20
2022-10-05T21:38:18.670Z,3.10
2022-10-05T21:40:45.392Z,3.22
2022-10-05T21:43:12.120Z,3.40
2022-10-05T21:45:39.068Z,3.07
2022-10-05T21:48:06.031Z,2.97
2022-10-05T21:50:33.918Z,3.10
2022-10-05T21:53:04.381Z,2.93
2022-10-05T21:55:35.515Z,3.25
2022-10-05T21:58:03.128Z,2.90
2022-10-05T22:00:30.473Z,3.03
2022-10-05T22:01:25.304Z,0
2022-10-05T22:02:57.290Z,3.30
2022-10-05T22:05:24.016Z,3.13
2022-10-05T22:10:37.576Z,2.70
2022-10-05T22:15:54.800Z,2.83
2022-10-05T22:21:11.525Z,2.40
2022-10-05T22:23:43.295Z,2.60
2022-10-05T22:26:12.904Z,2.60
2022-10-05T22:28:40.929Z,2.65
2022-10-05T22:31:09.027Z,2.58
2022-10-05T22:33:39.851Z,2.70
2022-10-05T22:36:07.906Z,2.40
2022-10-05T22:38:34.662Z,2.50
2022-10-05T22:41:01.507Z,2.40
2022-10-05T22:43:28.317Z,2.40
2022-10-05T22:45:55.636Z,2.45
2022-10-05T22:48:22.459Z,2.50
2022-10-05T22:50:49.179Z,2.30
2022-10-05T22:56:08.254Z,2.40
2022-10-05T23:01:22.910Z,2.30
2022-10-05T23:03:49.719Z,2.30
2022-10-05T23:09:06.043Z,2.28
2022-10-05T23:14:19.717Z,2.45
2022-10-05T23:16:46.771Z,2.38
2022-10-05T23:19:14.054Z,2.40
2022-10-05T23:21:40.771Z,2.10
2022-10-05T23:24:07.579Z,2.17
2022-10-05T23:26:34.581Z,2.20
2022-10-05T23:29:01.305Z,2.00
2022-10-05T23:31:31.542Z,2.08
2022-10-05T23:33:58.238Z,1.98
2022-10-05T23:36:27.568Z,2.03
2022-10-05T23:38:54.678Z,2.10
2022-10-05T23:41:21.471Z,1.80
2022-10-05T23:43:48.440Z,1.80
2022-10-05T23:46:16.098Z,1.70
2022-10-05T23:48:43.130Z,1.60
2022-10-05T23:51:12.434Z,1.70
2022-10-05T23:53:39.536Z,3.10
2022-10-05T23:56:06.658Z,1.98
2022-10-05T23:58:33.474Z,1.90
